createdAt,value
2023-04-18T00:01:38.851Z,10.20
2023-04-18T00:04:06.691Z,10.42
2023-04-18T00:06:36.232Z,10.46
2023-04-18T00:09:04.346Z,10.31
2023-04-18T00:11:32.060Z,10.41
2023-04-18T00:13:59.633Z,10.50
2023-04-18T00:16:28.449Z,10.37
2023-04-18T00:18:57.343Z,10.36
2023-04-18T00:21:25.901Z,10.31
2023-04-18T00:23:53.191Z,10.48
2023-04-18T00:26:20.863Z,10.40
2023-04-18T00:28:48.270Z,10.46
2023-04-18T00:31:15.598Z,10.38
2023-04-18T00:33:43.136Z,10.43
2023-04-18T00:36:10.610Z,10.41
2023-04-18T00:38:37.895Z,10.31
2023-04-18T00:41:07.558Z,10.14
2023-04-18T00:43:35.531Z,10.27
2023-04-18T00:46:02.818Z,10.41
2023-04-18T00:48:31.206Z,10.46
2023-04-18T00:51:00.427Z,10.23
2023-04-18T00:53:28.679Z,10.31
2023-04-18T00:55:56.284Z,10.56
2023-04-18T00:58:24.956Z,10.57
2023-04-18T01:00:52.421Z,10.50
2023-04-18T01:03:20.180Z,10.48
2023-04-18T01:05:47.535Z,10.56
2023-04-18T01:08:14.948Z,10.64
2023-04-18T01:10:42.707Z,10.48
2023-04-18T01:13:11.891Z,10.38
2023-04-18T01:15:47.926Z,10.38
2023-04-18T01:18:19.290Z,10.31
2023-04-18T01:20:50.405Z,10.24
2023-04-18T01:23:20.257Z,10.37
2023-04-18T01:25:51.196Z,10.23
2023-04-18T01:28:21.500Z,10.20
2023-04-18T01:30:49.044Z,10.30
2023-04-18T01:33:16.458Z,10.61
2023-04-18T01:35:46.112Z,10.58
2023-04-18T01:38:13.289Z,10.51
2023-04-18T01:40:40.572Z,10.50
2023-04-18T01:43:08.170Z,10.48
2023-04-18T01:45:37.935Z,10.53
2023-04-18T01:48:05.445Z,10.31
2023-04-18T01:50:33.491Z,10.33
2023-04-18T01:53:00.730Z,10.44
2023-04-18T01:55:27.999Z,10.44
2023-04-18T01:57:55.671Z,10.26
2023-04-18T02:00:23.226Z,10.33
2023-04-18T02:02:50.763Z,10.23
2023-04-18T02:05:21.114Z,10.36
2023-04-18T02:07:50.379Z,10.58
2023-04-18T02:10:19.111Z,10.38
2023-04-18T02:12:47.028Z,10.30
2023-04-18T02:15:14.442Z,10.35
2023-04-18T02:17:42.478Z,10.27
2023-04-18T02:20:11.004Z,10.25
2023-04-18T02:22:39.687Z,10.21
2023-04-18T02:25:08.064Z,10.29
2023-04-18T02:27:35.351Z,10.33
2023-04-18T02:30:02.793Z,10.29
2023-04-18T02:32:33.756Z,10.16
2023-04-18T02:35:02.094Z,10.14
2023-04-18T02:37:30.287Z,10.35
2023-04-18T02:39:57.600Z,10.23
2023-04-18T02:42:28.519Z,10.26
2023-04-18T02:44:55.997Z,10.19
2023-04-18T02:47:23.497Z,10.26
2023-04-18T02:49:51.177Z,10.20
2023-04-18T02:52:18.958Z,9.90
2023-04-18T02:54:46.398Z,10.14
2023-04-18T02:57:14.071Z,10.14
2023-04-18T02:59:42.488Z,10.16
2023-04-18T03:02:11.218Z,10.26
2023-04-18T03:04:39.078Z,10.07
2023-04-18T03:07:07.139Z,9.91
2023-04-18T03:09:35.451Z,10.00
2023-04-18T03:12:05.914Z,9.96
2023-04-18T03:14:34.379Z,9.73
2023-04-18T03:17:01.675Z,9.95
2023-04-18T03:19:29.345Z,9.90
2023-04-18T03:21:58.204Z,9.99
2023-04-18T03:24:25.575Z,10.08
2023-04-18T03:26:53.352Z,10.02
2023-04-18T03:29:21.677Z,10.06
2023-04-18T03:31:49.053Z,10.01
2023-04-18T03:34:16.616Z,9.94
2023-04-18T03:36:46.595Z,9.93
2023-04-18T03:39:15.592Z,10.16
2023-04-18T03:41:43.006Z,10.09
2023-04-18T03:44:18.818Z,10.21
2023-04-18T03:46:46.764Z,10.19
2023-04-18T03:49:14.483Z,10.18
2023-04-18T03:51:50.181Z,10.07
2023-04-18T03:54:18.778Z,10.17
2023-04-18T03:56:46.515Z,10.17
2023-04-18T03:59:14.106Z,10.21
2023-04-18T04:01:42.706Z,10.21
2023-04-18T04:04:12.355Z,10.09
2023-04-18T04:06:39.998Z,10.10
2023-04-18T04:09:08.011Z,10.07
2023-04-18T04:11:35.690Z,10.23
2023-04-18T04:14:03.708Z,10.14
2023-04-18T04:16:31.789Z,10.01
2023-04-18T04:18:59.973Z,9.79
2023-04-18T04:21:28.992Z,10.02
2023-04-18T04:23:56.551Z,9.89
2023-04-18T04:26:26.430Z,9.48
2023-04-18T04:28:54.532Z,9.45
2023-04-18T04:31:22.522Z,9.71
2023-04-18T04:33:50.858Z,9.84
2023-04-18T04:36:20.831Z,9.77
2023-04-18T04:38:48.473Z,9.89
2023-04-18T04:41:17.166Z,9.65
2023-04-18T04:43:46.736Z,9.61
2023-04-18T04:46:16.488Z,9.42
2023-04-18T04:48:46.997Z,9.33
2023-04-18T04:51:17.865Z,8.98
2023-04-18T04:53:46.315Z,9.07
2023-04-18T04:56:13.823Z,8.91
2023-04-18T04:58:46.582Z,8.98
2023-04-18T05:01:17.349Z,9.00
2023-04-18T05:03:45.207Z,9.17
2023-04-18T05:06:12.950Z,9.11
2023-04-18T05:08:40.991Z,9.10
2023-04-18T05:11:08.354Z,8.94
2023-04-18T05:13:37.405Z,9.03
2023-04-18T05:16:06.142Z,9.23
2023-04-18T05:18:45.050Z,9.19
2023-04-18T05:24:07.473Z,9.51
2023-04-18T05:26:37.786Z,9.62
2023-04-18T05:29:05.144Z,9.62
2023-04-18T05:31:33.577Z,9.73
2023-04-18T05:34:01.268Z,9.98
2023-04-18T05:36:29.001Z,10.16
2023-04-18T05:38:56.713Z,10.23
2023-04-18T05:41:53.668Z,10.02
2023-04-18T05:44:29.539Z,9.90
2023-04-18T05:46:59.512Z,9.76
2023-04-18T05:49:27.433Z,9.97
2023-04-18T05:51:54.823Z,9.90
2023-04-18T05:54:22.457Z,9.94
2023-04-18T05:56:49.781Z,9.79
2023-04-18T05:59:17.342Z,9.98
2023-04-18T06:01:45.029Z,9.65
2023-04-18T06:04:13.075Z,9.95
2023-04-18T06:06:41.054Z,10.16
2023-04-18T06:09:28.522Z,10.26
2023-04-18T06:11:58.455Z,10.28
2023-04-18T06:14:26.318Z,10.05
2023-04-18T06:16:54.162Z,10.04
2023-04-18T06:19:23.674Z,9.70
2023-04-18T06:21:51.480Z,10.07
2023-04-18T06:24:19.043Z,10.12
2023-04-18T06:26:49.190Z,10.15
2023-04-18T06:29:18.566Z,10.16
2023-04-18T06:31:48.698Z,10.29
2023-04-18T06:34:17.225Z,10.52
2023-04-18T06:36:44.677Z,10.22
2023-04-18T06:39:12.724Z,10.32
2023-04-18T06:41:41.544Z,10.36
2023-04-18T06:44:09.075Z,10.34
2023-04-18T06:46:36.436Z,10.50
2023-04-18T06:49:07.159Z,10.42
2023-04-18T06:51:36.955Z,10.59
2023-04-18T06:54:06.408Z,10.53
2023-04-18T06:56:36.631Z,10.75
2023-04-18T06:59:03.918Z,10.75
2023-04-18T07:01:50.640Z,10.57
2023-04-18T07:04:20.651Z,10.51
2023-04-18T07:06:53.184Z,10.52
2023-04-18T07:09:43.655Z,10.71
2023-04-18T07:12:20.034Z,10.64
2023-04-18T07:14:49.733Z,10.16
2023-04-18T07:17:18.434Z,10.27
2023-04-18T07:19:46.030Z,10.57
2023-04-18T07:22:19.567Z,10.33
2023-04-18T07:24:50.141Z,10.46
2023-04-18T07:27:17.602Z,10.58
2023-04-18T07:29:45.775Z,10.64
2023-04-18T07:32:14.407Z,10.50
2023-04-18T07:34:42.126Z,10.36
2023-04-18T07:37:15.043Z,10.27
2023-04-18T07:39:46.403Z,10.28
2023-04-18T07:42:15.414Z,10.52
2023-04-18T07:44:43.933Z,10.59
2023-04-18T07:47:12.862Z,10.45
2023-04-18T07:49:46.142Z,10.56
2023-04-18T07:52:17.655Z,10.90
2023-04-18T07:54:44.956Z,10.95
2023-04-18T07:57:26.021Z,11.03
2023-04-18T07:59:58.892Z,11.16
2023-04-18T08:02:27.579Z,11.00
2023-04-18T08:04:58.697Z,10.86
2023-04-18T08:07:31.412Z,10.97
2023-04-18T08:10:00.448Z,10.82
2023-04-18T08:12:33.973Z,10.70
2023-04-18T08:15:04.211Z,10.43
2023-04-18T08:17:45.005Z,10.53
2023-04-18T08:20:41.169Z,10.40
2023-04-18T08:23:13.088Z,10.41
2023-04-18T08:25:47.472Z,10.38
2023-04-18T08:28:24.160Z,10.44
2023-04-18T08:30:58.905Z,10.42
2023-04-18T08:33:30.738Z,10.78
2023-04-18T08:35:59.802Z,10.77
2023-04-18T08:38:30.271Z,10.85
2023-04-18T08:40:58.769Z,10.99
2023-04-18T08:43:26.589Z,10.79
2023-04-18T08:46:01.202Z,10.89
2023-04-18T08:48:29.440Z,11.22
2023-04-18T08:50:58.748Z,11.50
2023-04-18T08:53:29.178Z,11.43
2023-04-18T08:56:07.830Z,11.45
2023-04-18T08:58:42.679Z,11.68
2023-04-18T09:01:13.744Z,11.33
2023-04-18T09:03:43.347Z,11.54
2023-04-18T09:06:16.522Z,11.66
2023-04-18T09:08:44.846Z,11.64
2023-04-18T09:11:24.226Z,11.66
2023-04-18T09:13:53.437Z,12.11
2023-04-18T09:16:23.130Z,12.17
2023-04-18T09:19:12.571Z,12.34
2023-04-18T09:21:58.840Z,12.87
2023-04-18T09:24:27.270Z,13.72
2023-04-18T09:26:57.107Z,13.45
2023-04-18T09:29:47.012Z,13.66
2023-04-18T09:32:25.207Z,14.28
2023-04-18T09:35:04.886Z,13.51
2023-04-18T09:37:32.846Z,13.32
2023-04-18T09:40:00.180Z,13.38
2023-04-18T09:42:35.972Z,13.35
2023-04-18T09:45:17.106Z,13.53
2023-04-18T09:47:46.292Z,13.37
2023-04-18T09:50:16.968Z,13.09
2023-04-18T09:52:46.751Z,13.34
2023-04-18T09:55:25.789Z,13.42
2023-04-18T09:57:54.105Z,13.41
2023-04-18T10:00:24.251Z,13.21
2023-04-18T10:03:04.989Z,13.42
2023-04-18T10:05:34.912Z,13.27
2023-04-18T10:08:03.610Z,13.24
2023-04-18T10:10:31.192Z,13.51
2023-04-18T10:13:00.549Z,13.42
2023-04-18T10:15:30.081Z,13.15
2023-04-18T10:18:05.815Z,13.00
2023-04-18T10:20:35.588Z,13.02
2023-04-18T10:23:32.646Z,12.83
2023-04-18T10:26:01.135Z,12.65
2023-04-18T10:28:56.811Z,12.92
2023-04-18T10:31:29.514Z,13.05
2023-04-18T10:34:05.728Z,12.98
2023-04-18T10:36:34.070Z,13.26
2023-04-18T10:39:30.161Z,13.09
2023-04-18T10:41:57.846Z,13.69
2023-04-18T10:44:25.848Z,13.88
2023-04-18T10:46:53.247Z,13.83
2023-04-18T10:49:26.405Z,13.79
2023-04-18T10:51:56.866Z,13.29
2023-04-18T10:55:02.217Z,13.75
2023-04-18T10:57:40.074Z,14.31
2023-04-18T11:00:31.528Z,14.38
2023-04-18T11:03:00.847Z,14.56
2023-04-18T11:05:30.940Z,13.83
2023-04-18T11:07:58.340Z,14.14
2023-04-18T11:10:27.119Z,14.19
2023-04-18T11:13:26.182Z,14.64
2023-04-18T11:15:53.882Z,14.66
2023-04-18T11:18:22.324Z,14.91
2023-04-18T11:20:59.273Z,14.43
2023-04-18T11:23:27.576Z,14.66
2023-04-18T11:25:57.049Z,14.22
2023-04-18T11:28:27.456Z,13.66
2023-04-18T11:30:59.273Z,13.54
2023-04-18T11:33:28.671Z,13.32
2023-04-18T11:36:01.142Z,13.30
2023-04-18T11:38:31.053Z,13.60
2023-04-18T11:40:59.106Z,13.64
2023-04-18T11:43:27.682Z,13.58
2023-04-18T11:45:56.851Z,13.88
2023-04-18T11:48:34.064Z,13.80
2023-04-18T11:51:01.561Z,13.65
2023-04-18T11:53:37.141Z,13.63
2023-04-18T11:56:05.744Z,13.41
2023-04-18T11:58:34.360Z,13.47
2023-04-18T12:01:21.967Z,13.73
2023-04-18T12:04:04.650Z,13.46
2023-04-18T12:06:56.990Z,13.55
2023-04-18T12:09:25.363Z,13.71
2023-04-18T12:12:03.308Z,13.88
2023-04-18T12:14:31.026Z,13.58
2023-04-18T12:16:58.514Z,13.73
2023-04-18T12:19:28.369Z,13.74
2023-04-18T12:22:01.598Z,13.58
2023-04-18T12:24:29.217Z,13.55
2023-04-18T12:26:58.198Z,13.31
2023-04-18T12:29:26.159Z,13.30
2023-04-18T12:31:53.511Z,13.21
2023-04-18T12:34:21.631Z,13.30
2023-04-18T12:36:48.935Z,13.14
2023-04-18T12:39:16.366Z,13.05
2023-04-18T12:41:44.291Z,12.80
2023-04-18T12:44:11.769Z,13.05
2023-04-18T12:46:39.156Z,13.19
2023-04-18T12:49:06.953Z,13.58
2023-04-18T12:51:34.376Z,13.58
2023-04-18T12:54:01.863Z,13.41
2023-04-18T12:56:29.602Z,13.94
2023-04-18T12:58:56.840Z,14.02
2023-04-18T13:01:24.145Z,14.02
2023-04-18T13:04:03.932Z,14.05
2023-04-18T13:06:38.757Z,14.02
2023-04-18T13:09:06.449Z,14.49
2023-04-18T13:11:33.726Z,14.93
2023-04-18T13:14:01.060Z,15.02
2023-04-18T13:16:29.080Z,15.30
2023-04-18T13:18:56.350Z,15.14
2023-04-18T13:21:25.241Z,14.83
2023-04-18T13:23:52.896Z,14.62
2023-04-18T13:26:20.758Z,14.89
2023-04-18T13:28:48.081Z,14.00
2023-04-18T13:31:17.242Z,14.08
2023-04-18T13:33:44.673Z,13.96
2023-04-18T13:36:12.006Z,13.72
2023-04-18T13:38:40.088Z,13.80
2023-04-18T13:41:12.703Z,13.69
2023-04-18T13:43:41.293Z,13.18
2023-04-18T13:46:08.741Z,13.57
2023-04-18T13:48:36.432Z,14.02
2023-04-18T13:51:04.200Z,13.98
2023-04-18T13:53:31.551Z,14.14
2023-04-18T13:55:59.315Z,14.09
2023-04-18T13:58:26.956Z,13.69
2023-04-18T14:00:54.471Z,13.37
2023-04-18T14:03:22.595Z,13.15
2023-04-18T14:05:50.033Z,12.86
2023-04-18T14:08:17.376Z,12.72
2023-04-18T14:10:45.004Z,12.46
2023-04-18T14:13:12.348Z,12.04
2023-04-18T14:15:39.795Z,11.91
2023-04-18T14:18:07.420Z,12.08
2023-04-18T14:20:36.227Z,12.03
2023-04-18T14:23:03.605Z,12.17
2023-04-18T14:25:31.258Z,12.29
2023-04-18T14:28:11.104Z,12.33
2023-04-18T14:30:40.210Z,11.90
2023-04-18T14:33:09.792Z,11.91
2023-04-18T14:35:37.439Z,12.02
2023-04-18T14:38:05.229Z,12.21
2023-04-18T14:40:33.292Z,11.94
2023-04-18T14:43:00.841Z,11.78
2023-04-18T14:45:28.619Z,11.82
2023-04-18T14:47:56.155Z,11.77
2023-04-18T14:50:23.643Z,11.65
2023-04-18T14:52:51.805Z,11.64
2023-04-18T14:55:22.284Z,11.58
2023-04-18T14:57:49.632Z,11.47
2023-04-18T15:00:17.594Z,11.44
2023-04-18T15:02:45.047Z,11.42
2023-04-18T15:05:13.339Z,11.32
2023-04-18T15:07:43.078Z,11.18
2023-04-18T15:10:13.140Z,11.01
2023-04-18T15:12:41.804Z,10.97
2023-04-18T15:15:09.557Z,10.94
2023-04-18T15:17:36.899Z,10.86
2023-04-18T15:20:07.379Z,10.67
2023-04-18T15:22:35.863Z,10.57
2023-04-18T15:25:05.732Z,10.59
2023-04-18T15:27:33.655Z,10.64
2023-04-18T15:30:01.154Z,10.85
2023-04-18T15:32:28.478Z,11.07
2023-04-18T15:34:56.585Z,11.27
2023-04-18T15:37:26.512Z,11.24
2023-04-18T15:39:53.770Z,11.08
2023-04-18T15:42:21.344Z,11.02
2023-04-18T15:44:49.490Z,10.95
2023-04-18T15:47:17.285Z,10.86
2023-04-18T15:49:44.899Z,10.71
2023-04-18T15:52:13.804Z,10.60
2023-04-18T15:54:42.514Z,10.71
2023-04-18T15:57:11.084Z,10.79
2023-04-18T15:59:38.421Z,10.80
2023-04-18T16:02:07.455Z,10.62
2023-04-18T16:04:35.091Z,10.73
2023-04-18T16:07:03.231Z,10.76
2023-04-18T16:09:30.923Z,10.96
2023-04-18T16:11:58.731Z,10.81
2023-04-18T16:14:25.975Z,10.73
2023-04-18T16:16:55.172Z,10.84
2023-04-18T16:19:22.829Z,10.96
2023-04-18T16:21:50.430Z,11.17
2023-04-18T16:24:17.827Z,10.62
2023-04-18T16:26:45.520Z,10.71
2023-04-18T16:29:12.816Z,10.68
2023-04-18T16:31:41.635Z,10.84
2023-04-18T16:34:09.919Z,10.88
2023-04-18T16:36:37.325Z,10.76
2023-04-18T16:39:04.945Z,10.87
2023-04-18T16:41:32.713Z,10.94
2023-04-18T16:43:59.961Z,10.88
2023-04-18T16:46:31.577Z,10.90
2023-04-18T16:49:06.154Z,11.03
2023-04-18T16:51:40.309Z,11.04
2023-04-18T16:54:09.324Z,11.04
2023-04-18T16:56:40.443Z,11.06
2023-04-18T16:59:12.677Z,11.01
2023-04-18T17:01:42.450Z,11.11
2023-04-18T17:04:15.962Z,10.93
2023-04-18T17:06:47.943Z,11.06
2023-04-18T17:09:17.195Z,10.74
2023-04-18T17:11:44.617Z,10.90
2023-04-18T17:14:15.400Z,10.87
2023-04-18T17:16:43.949Z,10.87
2023-04-18T17:19:11.914Z,11.18
2023-04-18T17:21:39.449Z,11.27
2023-04-18T17:24:08.237Z,11.33
2023-04-18T17:26:40.124Z,11.33
2023-04-18T17:29:08.718Z,11.04
2023-04-18T17:31:36.633Z,11.03
2023-04-18T17:34:04.123Z,11.04
2023-04-18T17:36:32.866Z,11.02
2023-04-18T17:39:07.643Z,10.74
2023-04-18T17:41:37.965Z,10.78
2023-04-18T17:44:07.718Z,10.88
2023-04-18T17:46:35.482Z,10.95
2023-04-18T17:49:02.945Z,11.04
2023-04-18T17:51:31.524Z,10.98
2023-04-18T17:53:59.746Z,10.95
2023-04-18T17:56:28.051Z,11.10
2023-04-18T17:58:56.809Z,11.04
2023-04-18T18:01:26.361Z,10.86
2023-04-18T18:03:54.390Z,11.02
2023-04-18T18:06:22.707Z,10.97
2023-04-18T18:08:51.479Z,11.00
2023-04-18T18:11:19.263Z,11.15
2023-04-18T18:13:46.864Z,11.02
2023-04-18T18:16:14.395Z,10.93
2023-04-18T18:18:42.227Z,10.58
2023-04-18T18:21:10.752Z,10.38
2023-04-18T18:23:38.158Z,10.51
2023-04-18T18:26:06.783Z,10.52
2023-04-18T18:28:34.266Z,10.40
2023-04-18T18:31:01.915Z,10.49
2023-04-18T18:33:29.718Z,10.59
2023-04-18T18:35:58.539Z,10.56
2023-04-18T18:38:26.164Z,10.54
2023-04-18T18:40:53.873Z,10.46
2023-04-18T18:43:21.183Z,10.48
2023-04-18T18:45:48.524Z,10.52
2023-04-18T18:48:16.224Z,10.67
2023-04-18T18:50:43.748Z,10.50
2023-04-18T18:53:11.181Z,10.62
2023-04-18T18:55:38.966Z,10.57
2023-04-18T18:58:08.084Z,10.58
2023-04-18T19:00:35.680Z,10.57
2023-04-18T19:03:03.702Z,10.50
2023-04-18T19:05:31.082Z,10.36
2023-04-18T19:07:58.568Z,10.42
2023-04-18T19:10:26.513Z,10.40
2023-04-18T19:12:53.938Z,10.33
2023-04-18T19:15:21.362Z,10.40
2023-04-18T19:17:49.641Z,10.35
2023-04-18T19:20:17.426Z,10.22
2023-04-18T19:22:44.750Z,10.28
2023-04-18T19:25:12.676Z,10.27
2023-04-18T19:27:40.082Z,10.33
2023-04-18T19:30:08.088Z,10.47
2023-04-18T19:32:36.183Z,10.48
2023-04-18T19:35:04.812Z,10.21
2023-04-18T19:37:32.179Z,10.27
2023-04-18T19:39:59.890Z,10.31
2023-04-18T19:42:27.467Z,10.31
2023-04-18T19:44:54.768Z,10.38
2023-04-18T19:47:22.503Z,10.30
2023-04-18T19:49:49.866Z,10.06
2023-04-18T19:52:18.601Z,10.13
2023-04-18T19:54:46.223Z,10.29
2023-04-18T19:57:13.587Z,10.35
2023-04-18T19:59:40.938Z,10.40
2023-04-18T20:02:08.572Z,10.40
2023-04-18T20:04:37.004Z,9.81
2023-04-18T20:07:04.610Z,9.96
2023-04-18T20:09:31.979Z,10.22
2023-04-18T20:12:02.103Z,10.18
2023-04-18T20:14:30.013Z,10.06
2023-04-18T20:16:57.503Z,10.23
2023-04-18T20:19:25.786Z,10.12
2023-04-18T20:21:53.209Z,10.02
2023-04-18T20:24:21.339Z,10.03
2023-04-18T20:26:49.103Z,10.18
2023-04-18T20:29:16.689Z,10.16
2023-04-18T20:31:44.160Z,10.12
2023-04-18T20:34:11.965Z,10.13
2023-04-18T20:36:42.538Z,10.06
2023-04-18T20:39:09.911Z,10.35
2023-04-18T20:41:37.840Z,10.10
2023-04-18T20:44:09.316Z,10.03
2023-04-18T20:46:36.814Z,10.28
2023-04-18T20:49:04.531Z,10.26
2023-04-18T20:51:32.165Z,10.23
2023-04-18T20:53:59.601Z,10.39
2023-04-18T20:56:27.382Z,10.37
2023-04-18T20:58:54.884Z,10.30
2023-04-18T21:01:23.043Z,10.11
2023-04-18T21:03:50.939Z,10.27
2023-04-18T21:06:22.145Z,10.29
2023-04-18T21:08:49.517Z,10.15
2023-04-18T21:11:17.288Z,10.07
2023-04-18T21:13:44.810Z,10.06
2023-04-18T21:16:12.155Z,10.11
2023-04-18T21:18:39.845Z,9.94
2023-04-18T21:21:08.015Z,9.95
2023-04-18T21:23:42.098Z,10.04
2023-04-18T21:26:14.042Z,9.99
2023-04-18T21:29:00.980Z,9.91
2023-04-18T21:31:30.325Z,9.92
2023-04-18T21:33:59.384Z,9.90
2023-04-18T21:36:28.654Z,9.76
2023-04-18T21:38:58.286Z,9.79
2023-04-18T21:41:26.535Z,9.88
2023-04-18T21:43:53.955Z,9.89
2023-04-18T21:46:21.742Z,9.79
2023-04-18T21:48:49.547Z,9.85
2023-04-18T21:51:17.220Z,9.74
2023-04-18T21:53:45.035Z,9.93
2023-04-18T21:56:12.429Z,10.07
2023-04-18T21:58:39.814Z,10.21
2023-04-18T22:01:07.959Z,10.12
2023-04-18T22:06:34.941Z,10.34
2023-04-18T22:09:02.744Z,10.34
2023-04-18T22:11:30.178Z,9.97
2023-04-18T22:13:58.310Z,9.91
2023-04-18T22:16:26.210Z,9.92
2023-04-18T22:18:54.184Z,9.97
2023-04-18T22:21:21.427Z,9.87
2023-04-18T22:23:49.022Z,9.88
2023-04-18T22:26:16.239Z,9.95
2023-04-18T22:28:43.486Z,9.92
2023-04-18T22:31:11.005Z,9.89
2023-04-18T22:33:38.305Z,9.81
2023-04-18T22:36:06.193Z,9.82
2023-04-18T22:38:33.801Z,9.66
2023-04-18T22:41:01.118Z,9.72
2023-04-18T22:43:28.398Z,9.64
2023-04-18T22:45:56.570Z,9.61
2023-04-18T22:48:23.874Z,9.73
2023-04-18T22:50:51.216Z,9.74
2023-04-18T22:53:19.017Z,9.78
2023-04-18T22:55:46.814Z,9.66
2023-04-18T22:58:14.493Z,9.59
2023-04-18T23:00:42.606Z,9.78
2023-04-18T23:03:10.186Z,9.89
2023-04-18T23:05:37.610Z,9.66
2023-04-18T23:08:07.083Z,9.67
2023-04-18T23:10:34.484Z,9.63
2023-04-18T23:13:01.811Z,9.68
2023-04-18T23:15:29.506Z,9.69
2023-04-18T23:17:57.072Z,9.59
2023-04-18T23:20:24.375Z,9.59
2023-04-18T23:22:53.027Z,9.45
2023-04-18T23:25:21.563Z,9.49
2023-04-18T23:27:48.960Z,9.55
2023-04-18T23:30:17.404Z,9.49
2023-04-18T23:32:44.847Z,9.44
2023-04-18T23:35:12.189Z,9.38
2023-04-18T23:37:39.742Z,9.49
2023-04-18T23:40:08.098Z,9.57
2023-04-18T23:42:35.973Z,9.48
2023-04-18T23:45:04.810Z,9.46
2023-04-18T23:47:33.276Z,9.74
2023-04-18T23:50:00.747Z,9.74
2023-04-18T23:52:28.601Z,9.46
2023-04-18T23:54:58.810Z,9.42
2023-04-18T23:57:26.214Z,9.36
2023-04-18T23:59:53.914Z,9.42
